sensor_id;sensor_type;location;lat;lon;timestamp;P1;durP1;ratioP1;P2;durP2;ratioP2
78484;SDS011;67773;50.806;8.776;2023-03-11T00:00:19;2.17;;;1.40;;
78484;SDS011;67773;50.806;8.776;2023-03-11T00:02:47;3.03;;;1.63;;
78484;SDS011;67773;50.806;8.776;2023-03-11T00:05:21;1.55;;;1.20;;
78484;SDS011;67773;50.806;8.776;2023-03-11T00:07:49;2.83;;;1.48;;
78484;SDS011;67773;50.806;8.776;2023-03-11T00:10:15;2.78;;;1.52;;
78484;SDS011;67773;50.806;8.776;2023-03-11T00:12:45;3.03;;;1.50;;
78484;SDS011;67773;50.806;8.776;2023-03-11T00:15:11;2.63;;;1.40;;
78484;SDS011;67773;50.806;8.776;2023-03-11T00:17:37;2.15;;;1.40;;
78484;SDS011;67773;50.806;8.776;2023-03-11T00:20:03;3.03;;;1.40;;
78484;SDS011;67773;50.806;8.776;2023-03-11T00:22:30;2.47;;;1.08;;
78484;SDS011;67773;50.806;8.776;2023-03-11T00:24:56;1.95;;;1.23;;
78484;SDS011;67773;50.806;8.776;2023-03-11T00:27:21;2.00;;;1.33;;
78484;SDS011;67773;50.806;8.776;2023-03-11T00:29:47;1.73;;;1.10;;
78484;SDS011;67773;50.806;8.776;2023-03-11T00:32:12;2.13;;;1.33;;
78484;SDS011;67773;50.806;8.776;2023-03-11T00:34:37;2.27;;;1.30;;
78484;SDS011;67773;50.806;8.776;2023-03-11T00:37:03;2.37;;;1.33;;
78484;SDS011;67773;50.806;8.776;2023-03-11T00:39:28;2.10;;;1.30;;
78484;SDS011;67773;50.806;8.776;2023-03-11T00:41:53;1.87;;;1.03;;
78484;SDS011;67773;50.806;8.776;2023-03-11T00:44:20;1.77;;;1.20;;
78484;SDS011;67773;50.806;8.776;2023-03-11T00:46:46;1.80;;;1.00;;
78484;SDS011;67773;50.806;8.776;2023-03-11T00:49:11;2.03;;;1.00;;
78484;SDS011;67773;50.806;8.776;2023-03-11T00:51:36;1.47;;;1.00;;
78484;SDS011;67773;50.806;8.776;2023-03-11T00:54:02;1.70;;;1.20;;
78484;SDS011;67773;50.806;8.776;2023-03-11T00:56:27;1.92;;;0.90;;
78484;SDS011;67773;50.806;8.776;2023-03-11T00:58:52;2.43;;;1.03;;
78484;SDS011;67773;50.806;8.776;2023-03-11T01:01:18;2.23;;;1.30;;
78484;SDS011;67773;50.806;8.776;2023-03-11T01:03:44;2.05;;;1.23;;
78484;SDS011;67773;50.806;8.776;2023-03-11T01:06:10;1.55;;;0.90;;
78484;SDS011;67773;50.806;8.776;2023-03-11T01:08:35;1.30;;;0.95;;
78484;SDS011;67773;50.806;8.776;2023-03-11T01:11:01;2.53;;;1.13;;
78484;SDS011;67773;50.806;8.776;2023-03-11T01:13:27;2.08;;;1.00;;
78484;SDS011;67773;50.806;8.776;2023-03-11T01:15:54;1.73;;;1.10;;
78484;SDS011;67773;50.806;8.776;2023-03-11T01:18:19;1.38;;;0.88;;
78484;SDS011;67773;50.806;8.776;2023-03-11T01:20:45;1.77;;;1.20;;
78484;SDS011;67773;50.806;8.776;2023-03-11T01:23:11;2.30;;;1.15;;
78484;SDS011;67773;50.806;8.776;2023-03-11T01:25:37;1.67;;;1.02;;
78484;SDS011;67773;50.806;8.776;2023-03-11T01:28:04;1.77;;;0.90;;
78484;SDS011;67773;50.806;8.776;2023-03-11T01:30:32;1.55;;;0.82;;
78484;SDS011;67773;50.806;8.776;2023-03-11T01:32:58;1.38;;;0.90;;
78484;SDS011;67773;50.806;8.776;2023-03-11T01:35:24;2.10;;;1.13;;
78484;SDS011;67773;50.806;8.776;2023-03-11T01:37:52;1.48;;;0.90;;
78484;SDS011;67773;50.806;8.776;2023-03-11T01:40:41;1.60;;;1.00;;
78484;SDS011;67773;50.806;8.776;2023-03-11T01:43:06;1.38;;;0.73;;
78484;SDS011;67773;50.806;8.776;2023-03-11T01:48:17;1.67;;;0.90;;
78484;SDS011;67773;50.806;8.776;2023-03-11T01:50:44;1.33;;;0.70;;
78484;SDS011;67773;50.806;8.776;2023-03-11T01:53:13;1.83;;;1.00;;
78484;SDS011;67773;50.806;8.776;2023-03-11T01:55:40;1.20;;;0.80;;
78484;SDS011;67773;50.806;8.776;2023-03-11T01:58:07;1.40;;;0.85;;
78484;SDS011;67773;50.806;8.776;2023-03-11T02:00:38;1.60;;;0.80;;
78484;SDS011;67773;50.806;8.776;2023-03-11T02:03:08;1.45;;;0.90;;
78484;SDS011;67773;50.806;8.776;2023-03-11T02:05:39;1.40;;;1.00;;
78484;SDS011;67773;50.806;8.776;2023-03-11T02:08:05;1.48;;;0.98;;
78484;SDS011;67773;50.806;8.776;2023-03-11T02:10:31;1.30;;;0.70;;
78484;SDS011;67773;50.806;8.776;2023-03-11T02:12:57;1.17;;;0.85;;
78484;SDS011;67773;50.806;8.776;2023-03-11T02:15:23;2.42;;;0.80;;
78484;SDS011;67773;50.806;8.776;2023-03-11T02:17:50;1.20;;;0.90;;
78484;SDS011;67773;50.806;8.776;2023-03-11T02:20:31;1.90;;;0.60;;
78484;SDS011;67773;50.806;8.776;2023-03-11T02:23:04;0.90;;;0.70;;
78484;SDS011;67773;50.806;8.776;2023-03-11T02:25:38;1.02;;;0.75;;
78484;SDS011;67773;50.806;8.776;2023-03-11T02:28:11;1.05;;;0.60;;
78484;SDS011;67773;50.806;8.776;2023-03-11T02:30:40;1.17;;;0.63;;
78484;SDS011;67773;50.806;8.776;2023-03-11T02:33:07;1.38;;;0.70;;
78484;SDS011;67773;50.806;8.776;2023-03-11T02:35:34;1.17;;;0.82;;
78484;SDS011;67773;50.806;8.776;2023-03-11T02:37:59;1.25;;;0.90;;
78484;SDS011;67773;50.806;8.776;2023-03-11T02:40:32;1.73;;;0.80;;
78484;SDS011;67773;50.806;8.776;2023-03-11T02:43:02;1.20;;;0.70;;
78484;SDS011;67773;50.806;8.776;2023-03-11T02:45:31;0.80;;;0.60;;
78484;SDS011;67773;50.806;8.776;2023-03-11T02:47:57;1.08;;;0.60;;
78484;SDS011;67773;50.806;8.776;2023-03-11T02:50:24;1.05;;;0.70;;
78484;SDS011;67773;50.806;8.776;2023-03-11T02:52:51;1.00;;;0.60;;
78484;SDS011;67773;50.806;8.776;2023-03-11T02:55:16;1.17;;;0.55;;
78484;SDS011;67773;50.806;8.776;2023-03-11T02:57:44;1.20;;;0.50;;
78484;SDS011;67773;50.806;8.776;2023-03-11T03:00:10;1.23;;;0.63;;
78484;SDS011;67773;50.806;8.776;2023-03-11T03:02:41;1.10;;;0.80;;
78484;SDS011;67773;50.806;8.776;2023-03-11T03:05:07;0.88;;;0.60;;
78484;SDS011;67773;50.806;8.776;2023-03-11T03:07:33;1.10;;;0.60;;
78484;SDS011;67773;50.806;8.776;2023-03-11T03:09:58;0.95;;;0.55;;
78484;SDS011;67773;50.806;8.776;2023-03-11T03:12:24;0.90;;;0.50;;
78484;SDS011;67773;50.806;8.776;2023-03-11T03:14:49;1.00;;;0.60;;
78484;SDS011;67773;50.806;8.776;2023-03-11T03:17:15;1.27;;;0.40;;
78484;SDS011;67773;50.806;8.776;2023-03-11T03:19:40;1.40;;;0.70;;
78484;SDS011;67773;50.806;8.776;2023-03-11T03:22:05;1.37;;;0.60;;
78484;SDS011;67773;50.806;8.776;2023-03-11T03:24:30;1.00;;;0.60;;
78484;SDS011;67773;50.806;8.776;2023-03-11T03:26:56;0.90;;;0.50;;
78484;SDS011;67773;50.806;8.776;2023-03-11T03:29:21;1.40;;;0.80;;
78484;SDS011;67773;50.806;8.776;2023-03-11T03:31:46;0.95;;;0.57;;
78484;SDS011;67773;50.806;8.776;2023-03-11T03:34:12;0.93;;;0.50;;
78484;SDS011;67773;50.806;8.776;2023-03-11T03:36:37;1.17;;;0.60;;
78484;SDS011;67773;50.806;8.776;2023-03-11T03:39:02;1.20;;;0.60;;
78484;SDS011;67773;50.806;8.776;2023-03-11T03:41:29;0.90;;;0.50;;
78484;SDS011;67773;50.806;8.776;2023-03-11T03:43:54;1.08;;;0.70;;
78484;SDS011;67773;50.806;8.776;2023-03-11T03:46:20;1.43;;;0.60;;
78484;SDS011;67773;50.806;8.776;2023-03-11T03:48:45;0.70;;;0.50;;
78484;SDS011;67773;50.806;8.776;2023-03-11T03:51:11;2.37;;;0.60;;
78484;SDS011;67773;50.806;8.776;2023-03-11T03:53:37;0.70;;;0.52;;
78484;SDS011;67773;50.806;8.776;2023-03-11T03:56:04;1.33;;;0.47;;
78484;SDS011;67773;50.806;8.776;2023-03-11T03:58:30;0.60;;;0.40;;
78484;SDS011;67773;50.806;8.776;2023-03-11T04:00:55;0.83;;;0.50;;
78484;SDS011;67773;50.806;8.776;2023-03-11T04:03:21;1.00;;;0.50;;
78484;SDS011;67773;50.806;8.776;2023-03-11T04:05:47;1.05;;;0.40;;
78484;SDS011;67773;50.806;8.776;2023-03-11T04:08:12;0.90;;;0.40;;
78484;SDS011;67773;50.806;8.776;2023-03-11T04:10:37;1.00;;;0.40;;
78484;SDS011;67773;50.806;8.776;2023-03-11T04:13:02;0.97;;;0.50;;
78484;SDS011;67773;50.806;8.776;2023-03-11T04:15:28;2.13;;;0.50;;
78484;SDS011;67773;50.806;8.776;2023-03-11T04:17:53;0.63;;;0.40;;
78484;SDS011;67773;50.806;8.776;2023-03-11T04:20:18;0.83;;;0.40;;
78484;SDS011;67773;50.806;8.776;2023-03-11T04:22:44;1.10;;;0.50;;
78484;SDS011;67773;50.806;8.776;2023-03-11T04:25:09;1.20;;;0.50;;
78484;SDS011;67773;50.806;8.776;2023-03-11T04:27:35;0.83;;;0.50;;
78484;SDS011;67773;50.806;8.776;2023-03-11T04:30:02;1.13;;;0.40;;
78484;SDS011;67773;50.806;8.776;2023-03-11T04:32:28;1.30;;;0.60;;
78484;SDS011;67773;50.806;8.776;2023-03-11T04:34:53;0.70;;;0.30;;
78484;SDS011;67773;50.806;8.776;2023-03-11T04:37:19;0.98;;;0.40;;
78484;SDS011;67773;50.806;8.776;2023-03-11T04:39:44;0.93;;;0.50;;
78484;SDS011;67773;50.806;8.776;2023-03-11T04:42:09;0.90;;;0.40;;
78484;SDS011;67773;50.806;8.776;2023-03-11T04:44:37;0.57;;;0.35;;
78484;SDS011;67773;50.806;8.776;2023-03-11T04:47:03;0.70;;;0.40;;
78484;SDS011;67773;50.806;8.776;2023-03-11T04:49:28;0.77;;;0.30;;
78484;SDS011;67773;50.806;8.776;2023-03-11T04:51:53;0.60;;;0.40;;
78484;SDS011;67773;50.806;8.776;2023-03-11T04:54:19;1.17;;;0.43;;
78484;SDS011;67773;50.806;8.776;2023-03-11T04:56:44;0.83;;;0.40;;
78484;SDS011;67773;50.806;8.776;2023-03-11T04:59:09;0.97;;;0.50;;
78484;SDS011;67773;50.806;8.776;2023-03-11T05:01:35;1.53;;;0.40;;
78484;SDS011;67773;50.806;8.776;2023-03-11T05:04:00;1.13;;;0.40;;
78484;SDS011;67773;50.806;8.776;2023-03-11T05:06:25;0.53;;;0.40;;
78484;SDS011;67773;50.806;8.776;2023-03-11T05:08:51;0.80;;;0.40;;
78484;SDS011;67773;50.806;8.776;2023-03-11T05:11:16;1.07;;;0.47;;
78484;SDS011;67773;50.806;8.776;2023-03-11T05:13:41;1.27;;;0.40;;
78484;SDS011;67773;50.806;8.776;2023-03-11T05:16:06;1.50;;;0.37;;
78484;SDS011;67773;50.806;8.776;2023-03-11T05:18:32;1.93;;;0.40;;
78484;SDS011;67773;50.806;8.776;2023-03-11T05:20:57;0.90;;;0.40;;
78484;SDS011;67773;50.806;8.776;2023-03-11T05:23:23;1.25;;;0.40;;
78484;SDS011;67773;50.806;8.776;2023-03-11T05:25:48;2.10;;;0.47;;
78484;SDS011;67773;50.806;8.776;2023-03-11T05:28:13;0.80;;;0.30;;
78484;SDS011;67773;50.806;8.776;2023-03-11T05:30:39;2.17;;;0.43;;
78484;SDS011;67773;50.806;8.776;2023-03-11T05:33:04;1.57;;;0.40;;
78484;SDS011;67773;50.806;8.776;2023-03-11T05:35:29;0.93;;;0.40;;
78484;SDS011;67773;50.806;8.776;2023-03-11T05:37:55;1.33;;;0.60;;
78484;SDS011;67773;50.806;8.776;2023-03-11T05:40:20;1.00;;;0.40;;
78484;SDS011;67773;50.806;8.776;2023-03-11T05:42:45;0.50;;;0.30;;
78484;SDS011;67773;50.806;8.776;2023-03-11T05:45:11;0.70;;;0.20;;
78484;SDS011;67773;50.806;8.776;2023-03-11T05:47:36;1.25;;;0.50;;
78484;SDS011;67773;50.806;8.776;2023-03-11T05:50:02;0.77;;;0.30;;
78484;SDS011;67773;50.806;8.776;2023-03-11T05:52:28;1.23;;;0.30;;
78484;SDS011;67773;50.806;8.776;2023-03-11T05:54:55;0.80;;;0.30;;
78484;SDS011;67773;50.806;8.776;2023-03-11T05:57:20;0.50;;;0.30;;
78484;SDS011;67773;50.806;8.776;2023-03-11T05:59:45;0.65;;;0.20;;
78484;SDS011;67773;50.806;8.776;2023-03-11T06:02:12;1.17;;;0.30;;
78484;SDS011;67773;50.806;8.776;2023-03-11T06:04:37;0.90;;;0.22;;
78484;SDS011;67773;50.806;8.776;2023-03-11T06:07:02;0.97;;;0.33;;
78484;SDS011;67773;50.806;8.776;2023-03-11T06:09:28;0.52;;;0.35;;
78484;SDS011;67773;50.806;8.776;2023-03-11T06:11:54;1.10;;;0.40;;
78484;SDS011;67773;50.806;8.776;2023-03-11T06:14:19;1.33;;;0.47;;
78484;SDS011;67773;50.806;8.776;2023-03-11T06:16:44;1.50;;;0.47;;
78484;SDS011;67773;50.806;8.776;2023-03-11T06:19:10;1.95;;;0.60;;
78484;SDS011;67773;50.806;8.776;2023-03-11T06:21:35;1.80;;;0.70;;
78484;SDS011;67773;50.806;8.776;2023-03-11T06:24:00;2.45;;;0.68;;
78484;SDS011;67773;50.806;8.776;2023-03-11T06:26:26;1.90;;;0.50;;
78484;SDS011;67773;50.806;8.776;2023-03-11T06:28:51;1.53;;;0.60;;
78484;SDS011;67773;50.806;8.776;2023-03-11T06:31:21;1.98;;;0.65;;
78484;SDS011;67773;50.806;8.776;2023-03-11T06:33:50;1.27;;;0.50;;
78484;SDS011;67773;50.806;8.776;2023-03-11T06:36:16;0.90;;;0.40;;
78484;SDS011;67773;50.806;8.776;2023-03-11T06:38:43;0.90;;;0.40;;
78484;SDS011;67773;50.806;8.776;2023-03-11T06:41:10;1.17;;;0.55;;
78484;SDS011;67773;50.806;8.776;2023-03-11T06:43:36;1.70;;;0.60;;
78484;SDS011;67773;50.806;8.776;2023-03-11T06:46:06;1.08;;;0.40;;
78484;SDS011;67773;50.806;8.776;2023-03-11T06:48:36;2.45;;;0.65;;
78484;SDS011;67773;50.806;8.776;2023-03-11T06:51:01;2.70;;;0.52;;
78484;SDS011;67773;50.806;8.776;2023-03-11T06:53:27;1.92;;;0.52;;
78484;SDS011;67773;50.806;8.776;2023-03-11T06:55:57;2.47;;;0.60;;
78484;SDS011;67773;50.806;8.776;2023-03-11T06:58:23;2.65;;;0.60;;
78484;SDS011;67773;50.806;8.776;2023-03-11T07:00:48;3.42;;;0.70;;
78484;SDS011;67773;50.806;8.776;2023-03-11T07:03:14;3.73;;;1.40;;
78484;SDS011;67773;50.806;8.776;2023-03-11T07:05:39;2.53;;;0.93;;
78484;SDS011;67773;50.806;8.776;2023-03-11T07:08:04;3.27;;;1.27;;
78484;SDS011;67773;50.806;8.776;2023-03-11T07:10:30;3.40;;;0.90;;
78484;SDS011;67773;50.806;8.776;2023-03-11T07:12:55;2.57;;;1.60;;
78484;SDS011;67773;50.806;8.776;2023-03-11T07:15:20;2.67;;;1.03;;
78484;SDS011;67773;50.806;8.776;2023-03-11T07:17:45;3.27;;;1.07;;
78484;SDS011;67773;50.806;8.776;2023-03-11T07:20:11;2.27;;;1.07;;
78484;SDS011;67773;50.806;8.776;2023-03-11T07:22:36;2.45;;;1.20;;
78484;SDS011;67773;50.806;8.776;2023-03-11T07:25:02;5.87;;;1.40;;
78484;SDS011;67773;50.806;8.776;2023-03-11T07:27:27;2.28;;;1.15;;
78484;SDS011;67773;50.806;8.776;2023-03-11T07:29:53;1.98;;;1.00;;
78484;SDS011;67773;50.806;8.776;2023-03-11T07:32:18;3.40;;;0.77;;
78484;SDS011;67773;50.806;8.776;2023-03-11T07:34:43;2.93;;;0.87;;
78484;SDS011;67773;50.806;8.776;2023-03-11T07:37:09;2.05;;;0.70;;
78484;SDS011;67773;50.806;8.776;2023-03-11T07:39:34;3.30;;;1.30;;
78484;SDS011;67773;50.806;8.776;2023-03-11T07:41:59;2.20;;;1.00;;
78484;SDS011;67773;50.806;8.776;2023-03-11T07:44:24;2.60;;;1.20;;
78484;SDS011;67773;50.806;8.776;2023-03-11T07:46:50;3.90;;;1.67;;
78484;SDS011;67773;50.806;8.776;2023-03-11T07:49:15;2.53;;;1.30;;
78484;SDS011;67773;50.806;8.776;2023-03-11T07:51:40;2.73;;;1.07;;
78484;SDS011;67773;50.806;8.776;2023-03-11T07:54:08;2.95;;;1.50;;
78484;SDS011;67773;50.806;8.776;2023-03-11T07:56:35;2.38;;;1.40;;
78484;SDS011;67773;50.806;8.776;2023-03-11T07:59:00;2.33;;;1.20;;
78484;SDS011;67773;50.806;8.776;2023-03-11T08:01:28;2.97;;;1.58;;
78484;SDS011;67773;50.806;8.776;2023-03-11T08:03:59;2.67;;;1.30;;
78484;SDS011;67773;50.806;8.776;2023-03-11T08:06:30;2.75;;;1.23;;
78484;SDS011;67773;50.806;8.776;2023-03-11T08:08:57;4.85;;;1.63;;
78484;SDS011;67773;50.806;8.776;2023-03-11T08:11:23;2.60;;;1.30;;
78484;SDS011;67773;50.806;8.776;2023-03-11T08:13:49;2.35;;;1.00;;
78484;SDS011;67773;50.806;8.776;2023-03-11T08:16:17;2.65;;;1.20;;
78484;SDS011;67773;50.806;8.776;2023-03-11T08:18:45;2.85;;;1.10;;
78484;SDS011;67773;50.806;8.776;2023-03-11T08:21:12;4.53;;;1.33;;
78484;SDS011;67773;50.806;8.776;2023-03-11T08:23:39;3.30;;;1.40;;
78484;SDS011;67773;50.806;8.776;2023-03-11T08:26:05;3.00;;;1.17;;
78484;SDS011;67773;50.806;8.776;2023-03-11T08:28:31;4.43;;;1.42;;
78484;SDS011;67773;50.806;8.776;2023-03-11T08:30:57;6.53;;;3.42;;
78484;SDS011;67773;50.806;8.776;2023-03-11T08:33:22;8.73;;;4.38;;
78484;SDS011;67773;50.806;8.776;2023-03-11T08:35:48;5.90;;;3.20;;
78484;SDS011;67773;50.806;8.776;2023-03-11T08:38:13;7.43;;;3.23;;
78484;SDS011;67773;50.806;8.776;2023-03-11T08:40:38;6.13;;;2.90;;
78484;SDS011;67773;50.806;8.776;2023-03-11T08:43:04;11.10;;;3.13;;
78484;SDS011;67773;50.806;8.776;2023-03-11T08:45:29;6.72;;;3.00;;
78484;SDS011;67773;50.806;8.776;2023-03-11T08:47:55;5.43;;;2.42;;
78484;SDS011;67773;50.806;8.776;2023-03-11T08:50:20;7.63;;;3.47;;
78484;SDS011;67773;50.806;8.776;2023-03-11T08:52:45;5.80;;;2.88;;
78484;SDS011;67773;50.806;8.776;2023-03-11T08:55:12;13.73;;;7.75;;
78484;SDS011;67773;50.806;8.776;2023-03-11T08:57:38;9.52;;;5.07;;
78484;SDS011;67773;50.806;8.776;2023-03-11T09:00:04;6.57;;;3.83;;
78484;SDS011;67773;50.806;8.776;2023-03-11T09:02:31;6.20;;;4.10;;
78484;SDS011;67773;50.806;8.776;2023-03-11T09:04:56;6.40;;;3.83;;
78484;SDS011;67773;50.806;8.776;2023-03-11T09:07:21;7.90;;;4.57;;
78484;SDS011;67773;50.806;8.776;2023-03-11T09:09:47;5.73;;;3.30;;
78484;SDS011;67773;50.806;8.776;2023-03-11T09:12:12;6.28;;;3.53;;
78484;SDS011;67773;50.806;8.776;2023-03-11T09:14:41;6.72;;;3.45;;
78484;SDS011;67773;50.806;8.776;2023-03-11T09:17:07;7.32;;;3.70;;
78484;SDS011;67773;50.806;8.776;2023-03-11T09:19:35;5.90;;;3.15;;
78484;SDS011;67773;50.806;8.776;2023-03-11T09:22:01;4.88;;;3.22;;
78484;SDS011;67773;50.806;8.776;2023-03-11T09:24:28;6.07;;;3.35;;
78484;SDS011;67773;50.806;8.776;2023-03-11T09:26:53;8.05;;;5.13;;
78484;SDS011;67773;50.806;8.776;2023-03-11T09:29:19;7.82;;;4.75;;
78484;SDS011;67773;50.806;8.776;2023-03-11T09:31:44;10.15;;;5.68;;
78484;SDS011;67773;50.806;8.776;2023-03-11T09:34:10;8.57;;;4.90;;
78484;SDS011;67773;50.806;8.776;2023-03-11T09:36:39;7.88;;;4.93;;
78484;SDS011;67773;50.806;8.776;2023-03-11T09:39:04;7.38;;;4.72;;
78484;SDS011;67773;50.806;8.776;2023-03-11T09:41:51;8.20;;;5.23;;
78484;SDS011;67773;50.806;8.776;2023-03-11T09:47:15;8.05;;;4.95;;
78484;SDS011;67773;50.806;8.776;2023-03-11T09:52:48;9.93;;;5.38;;
78484;SDS011;67773;50.806;8.776;2023-03-11T09:55:54;7.05;;;4.65;;
78484;SDS011;67773;50.806;8.776;2023-03-11T10:01:15;7.05;;;4.60;;
78484;SDS011;67773;50.806;8.776;2023-03-11T10:04:15;7.07;;;4.30;;
78484;SDS011;67773;50.806;8.776;2023-03-11T10:06:54;6.97;;;3.67;;
78484;SDS011;67773;50.806;8.776;2023-03-11T10:12:18;6.80;;;3.35;;
78484;SDS011;67773;50.806;8.776;2023-03-11T10:23:35;4.20;;;2.90;;
78484;SDS011;67773;50.806;8.776;2023-03-11T10:26:22;5.90;;;3.35;;
78484;SDS011;67773;50.806;8.776;2023-03-11T10:28:57;5.78;;;3.38;;
78484;SDS011;67773;50.806;8.776;2023-03-11T10:31:34;5.78;;;3.38;;
78484;SDS011;67773;50.806;8.776;2023-03-11T10:34:09;5.82;;;3.45;;
78484;SDS011;67773;50.806;8.776;2023-03-11T10:36:41;5.75;;;3.17;;
78484;SDS011;67773;50.806;8.776;2023-03-11T10:39:16;7.57;;;3.20;;
78484;SDS011;67773;50.806;8.776;2023-03-11T10:41:45;6.25;;;3.28;;
78484;SDS011;67773;50.806;8.776;2023-03-11T10:44:17;5.55;;;3.22;;
78484;SDS011;67773;50.806;8.776;2023-03-11T10:46:52;4.70;;;3.08;;
78484;SDS011;67773;50.806;8.776;2023-03-11T10:49:17;5.57;;;2.87;;
78484;SDS011;67773;50.806;8.776;2023-03-11T10:51:44;5.72;;;2.97;;
78484;SDS011;67773;50.806;8.776;2023-03-11T10:54:25;5.70;;;3.10;;
78484;SDS011;67773;50.806;8.776;2023-03-11T10:56:58;5.13;;;3.00;;
78484;SDS011;67773;50.806;8.776;2023-03-11T10:59:32;4.63;;;2.85;;
78484;SDS011;67773;50.806;8.776;2023-03-11T11:02:20;4.60;;;2.88;;
78484;SDS011;67773;50.806;8.776;2023-03-11T11:07:37;10.82;;;6.68;;
78484;SDS011;67773;50.806;8.776;2023-03-11T11:10:16;10.07;;;6.07;;
78484;SDS011;67773;50.806;8.776;2023-03-11T11:15:28;9.25;;;5.88;;
78484;SDS011;67773;50.806;8.776;2023-03-11T11:17:58;8.85;;;5.22;;
78484;SDS011;67773;50.806;8.776;2023-03-11T11:20:25;7.55;;;4.97;;
78484;SDS011;67773;50.806;8.776;2023-03-11T11:22:59;9.40;;;5.47;;
78484;SDS011;67773;50.806;8.776;2023-03-11T11:25:29;6.13;;;4.18;;
78484;SDS011;67773;50.806;8.776;2023-03-11T11:28:15;7.38;;;4.70;;
78484;SDS011;67773;50.806;8.776;2023-03-11T11:31:02;6.32;;;3.95;;
78484;SDS011;67773;50.806;8.776;2023-03-11T11:33:46;5.68;;;3.63;;
78484;SDS011;67773;50.806;8.776;2023-03-11T11:36:14;8.18;;;4.40;;
78484;SDS011;67773;50.806;8.776;2023-03-11T11:38:40;7.28;;;4.28;;
78484;SDS011;67773;50.806;8.776;2023-03-11T11:41:08;9.57;;;4.97;;
78484;SDS011;67773;50.806;8.776;2023-03-11T11:43:41;7.68;;;4.32;;
78484;SDS011;67773;50.806;8.776;2023-03-11T11:46:17;7.55;;;4.47;;
78484;SDS011;67773;50.806;8.776;2023-03-11T11:51:23;7.50;;;4.40;;
78484;SDS011;67773;50.806;8.776;2023-03-11T11:53:58;5.60;;;3.40;;
78484;SDS011;67773;50.806;8.776;2023-03-11T11:56:33;7.10;;;3.80;;
78484;SDS011;67773;50.806;8.776;2023-03-11T11:58:58;6.20;;;3.63;;
78484;SDS011;67773;50.806;8.776;2023-03-11T12:01:29;9.98;;;3.60;;
78484;SDS011;67773;50.806;8.776;2023-03-11T12:09:46;7.00;;;3.88;;
78484;SDS011;67773;50.806;8.776;2023-03-11T12:12:30;7.43;;;3.60;;
78484;SDS011;67773;50.806;8.776;2023-03-11T12:17:43;5.72;;;2.97;;
78484;SDS011;67773;50.806;8.776;2023-03-11T12:20:21;7.72;;;4.35;;
78484;SDS011;67773;50.806;8.776;2023-03-11T12:25:33;16.33;;;8.77;;
78484;SDS011;67773;50.806;8.776;2023-03-11T12:28:31;10.43;;;5.78;;
78484;SDS011;67773;50.806;8.776;2023-03-11T12:31:20;9.23;;;5.15;;
78484;SDS011;67773;50.806;8.776;2023-03-11T12:33:48;500.67;;;170.40;;
78484;SDS011;67773;50.806;8.776;2023-03-11T12:38:49;551.15;;;217.25;;
78484;SDS011;67773;50.806;8.776;2023-03-11T12:43:56;299.52;;;96.53;;
78484;SDS011;67773;50.806;8.776;2023-03-11T12:46:23;263.17;;;85.45;;
78484;SDS011;67773;50.806;8.776;2023-03-11T12:52:19;271.65;;;86.85;;
78484;SDS011;67773;50.806;8.776;2023-03-11T12:54:43;244.88;;;76.38;;
78484;SDS011;67773;50.806;8.776;2023-03-11T13:05:26;200.55;;;64.68;;
78484;SDS011;67773;50.806;8.776;2023-03-11T13:07:55;193.70;;;60.40;;
78484;SDS011;67773;50.806;8.776;2023-03-11T13:12:59;159.85;;;52.05;;
78484;SDS011;67773;50.806;8.776;2023-03-11T13:18:03;167.32;;;49.85;;
78484;SDS011;67773;50.806;8.776;2023-03-11T13:33:53;130.45;;;40.45;;
78484;SDS011;67773;50.806;8.776;2023-03-11T13:41:48;117.30;;;36.22;;
78484;SDS011;67773;50.806;8.776;2023-03-11T13:46:49;116.50;;;37.40;;
78484;SDS011;67773;50.806;8.776;2023-03-11T13:49:37;92.35;;;34.67;;
78484;SDS011;67773;50.806;8.776;2023-03-11T13:52:08;105.45;;;34.03;;
78484;SDS011;67773;50.806;8.776;2023-03-11T13:54:38;103.07;;;35.47;;
78484;SDS011;67773;50.806;8.776;2023-03-11T13:59:41;95.20;;;31.05;;
78484;SDS011;67773;50.806;8.776;2023-03-11T14:04:33;87.37;;;27.93;;
78484;SDS011;67773;50.806;8.776;2023-03-11T14:07:11;84.63;;;29.23;;
78484;SDS011;67773;50.806;8.776;2023-03-11T14:09:45;80.15;;;28.25;;
78484;SDS011;67773;50.806;8.776;2023-03-11T14:12:11;77.37;;;27.03;;
78484;SDS011;67773;50.806;8.776;2023-03-11T14:14:42;88.65;;;29.08;;
78484;SDS011;67773;50.806;8.776;2023-03-11T14:17:14;81.57;;;28.08;;
78484;SDS011;67773;50.806;8.776;2023-03-11T14:19:42;79.25;;;27.08;;
78484;SDS011;67773;50.806;8.776;2023-03-11T14:22:08;76.68;;;27.58;;
78484;SDS011;67773;50.806;8.776;2023-03-11T14:24:34;75.28;;;26.83;;
78484;SDS011;67773;50.806;8.776;2023-03-11T14:27:01;68.07;;;25.98;;
78484;SDS011;67773;50.806;8.776;2023-03-11T14:29:31;77.43;;;26.80;;
78484;SDS011;67773;50.806;8.776;2023-03-11T14:31:59;74.18;;;24.42;;
78484;SDS011;67773;50.806;8.776;2023-03-11T14:34:25;67.50;;;23.17;;
78484;SDS011;67773;50.806;8.776;2023-03-11T14:37:01;61.00;;;23.33;;
78484;SDS011;67773;50.806;8.776;2023-03-11T14:39:32;63.67;;;23.23;;
78484;SDS011;67773;50.806;8.776;2023-03-11T14:42:17;59.17;;;23.17;;
78484;SDS011;67773;50.806;8.776;2023-03-11T14:47:18;58.35;;;21.70;;
78484;SDS011;67773;50.806;8.776;2023-03-11T14:50:20;55.28;;;20.05;;
78484;SDS011;67773;50.806;8.776;2023-03-11T14:55:27;53.10;;;19.60;;
78484;SDS011;67773;50.806;8.776;2023-03-11T14:57:56;50.40;;;18.13;;
78484;SDS011;67773;50.806;8.776;2023-03-11T15:00:33;50.03;;;18.55;;
78484;SDS011;67773;50.806;8.776;2023-03-11T15:03:22;47.90;;;17.30;;
78484;SDS011;67773;50.806;8.776;2023-03-11T15:05:54;52.60;;;18.42;;
78484;SDS011;67773;50.806;8.776;2023-03-11T15:08:23;52.38;;;18.77;;
78484;SDS011;67773;50.806;8.776;2023-03-11T15:13:36;47.80;;;17.33;;
78484;SDS011;67773;50.806;8.776;2023-03-11T15:16:03;47.63;;;16.80;;
78484;SDS011;67773;50.806;8.776;2023-03-11T15:18:35;45.85;;;16.60;;
78484;SDS011;67773;50.806;8.776;2023-03-11T15:24:14;42.13;;;15.95;;
78484;SDS011;67773;50.806;8.776;2023-03-11T15:26:41;40.60;;;15.23;;
78484;SDS011;67773;50.806;8.776;2023-03-11T15:29:18;39.58;;;14.20;;
78484;SDS011;67773;50.806;8.776;2023-03-11T15:31:45;35.22;;;14.52;;
78484;SDS011;67773;50.806;8.776;2023-03-11T15:39:17;35.83;;;12.40;;
78484;SDS011;67773;50.806;8.776;2023-03-11T15:49:13;40.08;;;13.25;;
78484;SDS011;67773;50.806;8.776;2023-03-11T15:51:39;34.83;;;13.07;;
78484;SDS011;67773;50.806;8.776;2023-03-11T15:54:04;35.77;;;13.63;;
78484;SDS011;67773;50.806;8.776;2023-03-11T15:56:29;32.17;;;12.60;;
78484;SDS011;67773;50.806;8.776;2023-03-11T15:58:57;26.92;;;12.55;;
78484;SDS011;67773;50.806;8.776;2023-03-11T16:01:22;28.60;;;11.30;;
78484;SDS011;67773;50.806;8.776;2023-03-11T16:03:52;31.65;;;12.90;;
78484;SDS011;67773;50.806;8.776;2023-03-11T16:22:32;1.33;;;0.55;;
78484;SDS011;67773;50.806;8.776;2023-03-11T16:25:00;2.45;;;0.90;;
78484;SDS011;67773;50.806;8.776;2023-03-11T16:27:27;2.00;;;0.98;;
78484;SDS011;67773;50.806;8.776;2023-03-11T16:29:53;2.42;;;0.85;;
78484;SDS011;67773;50.806;8.776;2023-03-11T16:32:18;3.63;;;0.90;;
78484;SDS011;67773;50.806;8.776;2023-03-11T16:34:43;2.03;;;0.83;;
78484;SDS011;67773;50.806;8.776;2023-03-11T16:37:09;3.03;;;1.08;;
78484;SDS011;67773;50.806;8.776;2023-03-11T16:39:39;2.75;;;0.77;;
78484;SDS011;67773;50.806;8.776;2023-03-11T16:42:04;1.40;;;0.77;;
78484;SDS011;67773;50.806;8.776;2023-03-11T16:44:29;2.95;;;0.73;;
78484;SDS011;67773;50.806;8.776;2023-03-11T16:46:55;7.22;;;3.30;;
78484;SDS011;67773;50.806;8.776;2023-03-11T16:49:20;3.53;;;1.10;;
78484;SDS011;67773;50.806;8.776;2023-03-11T16:51:45;4.13;;;1.37;;
78484;SDS011;67773;50.806;8.776;2023-03-11T16:54:11;2.83;;;1.00;;
78484;SDS011;67773;50.806;8.776;2023-03-11T16:56:36;4.63;;;1.50;;
78484;SDS011;67773;50.806;8.776;2023-03-11T16:59:03;4.18;;;1.20;;